Meteo Giornale » Osservazioni meteo Honduras » Tela
ore: 11:00 - Osservazioni Meteo Tela
Lat. 15° 43' N Lon. 87° 29' W Alt. 3 metri s.l.m.
32 °C
Poco Nuvoloso
Temp. 24 Ore
26 °C
32 °C
Nord-Est
16.7 Km/h
Dew point 28 °C
Umidità 79 %
Visibilità 10 Km
Il sole sorge alle ore 05:37
Il sole tramonta alle ore 18:03
| Data e Ora | Cielo e Fenomeni | T °C | DP °C | Um. % | Pres. hPa | Vis. km | Vento km/h | |
|---|---|---|---|---|---|---|---|---|
| Oggi h: 11:00 | Poco Nuvoloso | 32 | 28 | 79 | 1014 | 10 | NE 16.7 | |
| Oggi h: 10:00 | Nuvoloso | 31 | 27 | 79 | 1014 | 10 | N/NO 9.3 | |
| Oggi h: 09:00 | Nuvoloso | 32 | 28 | 79 | 1014 | 10 | O/NO 9.3 | |
| Oggi h: 08:26 | Nuvoloso | 32 | 28 | 79 | 1014 | 10 | N 3.7 | |
| Oggi h: 08:00 | Nuvoloso | 30 | 28 | 89 | 1013 | 10 | N 0 | |
| Oggi h: 07:17 | Nuvoloso | 29 | 27 | 89 | 1013 | 10 | N 0 | |
| Oggi h: 07:00 | Nuvoloso | 27 | 26 | 94 | 1013 | 10 | N 0 | |
| Oggi h: 06:00 | Nuvoloso | 26 | 25 | 94 | 1012 | 10 | N 0 | |
| Ieri h: 22:00 | Temporale | 27 | 26 | 94 | 1014 | 4 | SE 18.5 | |
| Ieri h: 21:00 | Temporale | 29 | 27 | 89 | 1014 | 8 | SE 9.3 | |
| Ieri h: 20:00 | Temporale | 28 | 27 | 94 | 1013 | 9 | N 5.5 | |
| Ieri h: 19:00 | Pioggia | 29 | 26 | 83 | 1012 | 8 | SE 7.4 | |
| Ieri h: 18:00 | Nuvoloso | 29 | 27 | 89 | 1012 | 10 | E/NE 16.7 | |
| Ieri h: 17:08 | Nuvoloso | 29 | 27 | 89 | 1011 | 10 | E 14.8 | |
| Ieri h: 17:00 | Pioggia | 30 | 27 | 84 | 1011 | 5 | E/NE 22.2 | |
| Ieri h: 16:00 | Nuvoloso | 31 | 27 | 79 | 1012 | 10 | N/NE 18.5 | |
| Ieri h: 15:00 | Nuvoloso | 32 | 27 | 74 | 1012 | 10 | E/NE 18.5 | |
| Ieri h: 14:00 | Nuvoloso | 32 | 27 | 74 | 1013 | 10 | NE 16.7 | |
| Ieri h: 13:00 | Poco Nuvoloso | 32 | 27 | 74 | 1013 | 10 | NE 9.3 | |
| Ieri h: 12:00 | Poco Nuvoloso | 32 | 27 | 74 | 1014 | 10 | N/NE 14.8 | |



